Time;durP1;ratioP1;P1;durP2;ratioP2;P2;SDS_P1;SDS_P2;PMS_P1;PMS_P2;Temp;Humidity;BMP_temperature;BMP_pressure;BME280_temperature;BME280_humidity;BME280_pressure;Samples;Min_cycle;Max_cycle;Signal;HPM_P1;HPM_P2
2024/01/14 00:02:18;;;;;;;15.52;2.30;;;;;;;;;;5008014;28;20076;-77
2024/01/14 00:04:44;;;;;;;6.85;1.95;;;;;;;;;;5026671;28;20495;-77
2024/01/14 00:07:10;;;;;;;11.55;2.40;;;;;;;;;;5024964;28;20052;-78
2024/01/14 00:09:36;;;;;;;6.88;1.67;;;;;;;;;;5008805;28;20060;-77
2024/01/14 00:12:03;;;;;;;5.68;2.28;;;;;;;;;;5008964;28;20495;-77
2024/01/14 00:14:29;;;;;;;10.95;2.22;;;;;;;;;;5009293;28;20483;-77
2024/01/14 00:16:55;;;;;;;10.27;2.30;;;;;;;;;;5009710;28;20041;-77
2024/01/14 00:19:21;;;;;;;12.02;2.28;;;;;;;;;;5025894;28;20068;-77
2024/01/14 00:21:47;;;;;;;11.10;2.15;;;;;;;;;;5026881;28;20491;-78
2024/01/14 00:24:13;;;;;;;10.13;1.90;;;;;;;;;;4994015;28;20053;-78
2024/01/14 00:26:39;;;;;;;9.93;2.40;;;;;;;;;;5004614;28;20051;-77
2024/01/14 00:29:06;;;;;;;8.73;1.77;;;;;;;;;;5026687;28;20045;-78
2024/01/14 00:31:32;;;;;;;9.93;1.98;;;;;;;;;;5010071;28;20107;-78
2024/01/14 00:33:58;;;;;;;8.63;2.05;;;;;;;;;;5025117;28;20045;-77
2024/01/14 00:36:24;;;;;;;7.10;1.67;;;;;;;;;;4995958;28;20195;-78
2024/01/14 00:38:50;;;;;;;7.65;1.55;;;;;;;;;;5029865;28;20067;-78
2024/01/14 00:41:17;;;;;;;8.88;2.63;;;;;;;;;;5030202;28;20045;-78
2024/01/14 00:43:43;;;;;;;7.13;2.10;;;;;;;;;;5027667;28;20531;-78
2024/01/14 00:46:09;;;;;;;6.57;1.30;;;;;;;;;;5030575;28;20045;-77
2024/01/14 00:48:36;;;;;;;8.70;1.80;;;;;;;;;;5029714;28;20041;-77
2024/01/14 00:51:02;;;;;;;10.35;1.65;;;;;;;;;;5012124;28;20388;-78
2024/01/14 00:53:28;;;;;;;11.75;2.15;;;;;;;;;;5011802;28;20042;-77
2024/01/14 00:55:54;;;;;;;10.15;2.13;;;;;;;;;;4996773;28;20474;-78
2024/01/14 00:58:20;;;;;;;9.48;1.88;;;;;;;;;;5029226;28;20099;-78
2024/01/14 01:00:46;;;;;;;6.35;1.65;;;;;;;;;;5011722;28;20047;-77
2024/01/14 01:03:12;;;;;;;3.78;1.33;;;;;;;;;;5028714;28;20088;-77
2024/01/14 01:05:39;;;;;;;8.25;1.58;;;;;;;;;;4996071;28;20518;-78
2024/01/14 01:08:05;;;;;;;5.90;1.50;;;;;;;;;;5010842;28;20041;-77
2024/01/14 01:10:31;;;;;;;13.13;1.65;;;;;;;;;;5029123;28;20816;-78
2024/01/14 01:12:57;;;;;;;7.65;1.73;;;;;;;;;;5029187;28;20050;-77
2024/01/14 01:15:23;;;;;;;6.68;1.77;;;;;;;;;;5011796;28;20049;-78
2024/01/14 01:17:49;;;;;;;9.85;1.60;;;;;;;;;;5029225;28;20124;-78
2024/01/14 01:20:15;;;;;;;7.93;2.17;;;;;;;;;;5028200;28;20392;-78
2024/01/14 01:22:41;;;;;;;6.85;1.48;;;;;;;;;;5029053;28;20049;-78
2024/01/14 01:25:10;;;;;;;4.10;1.75;;;;;;;;;;5029159;28;20127;-78
2024/01/14 01:27:36;;;;;;;9.95;1.88;;;;;;;;;;5029144;28;20052;-78
2024/01/14 01:30:03;;;;;;;5.88;1.40;;;;;;;;;;5029391;28;20050;-78
2024/01/14 01:32:29;;;;;;;3.90;1.38;;;;;;;;;;5011510;28;20403;-78
2024/01/14 01:34:55;;;;;;;5.03;1.27;;;;;;;;;;5009653;28;20045;-77
2024/01/14 01:37:21;;;;;;;7.97;1.98;;;;;;;;;;5027473;28;20688;-78
2024/01/14 01:39:47;;;;;;;10.05;1.60;;;;;;;;;;5010315;28;20120;-77
2024/01/14 01:42:13;;;;;;;8.40;1.33;;;;;;;;;;5007091;28;20475;-78
2024/01/14 01:44:39;;;;;;;9.00;1.75;;;;;;;;;;5022052;28;20045;-78
2024/01/14 01:47:07;;;;;;;7.97;1.52;;;;;;;;;;5028820;28;20100;-77
2024/01/14 01:49:35;;;;;;;10.93;2.30;;;;;;;;;;5009575;28;20265;-78
2024/01/14 01:52:04;;;;;;;8.88;1.50;;;;;;;;;;5015879;28;20072;-78
2024/01/14 01:54:30;;;;;;;8.00;1.83;;;;;;;;;;5027906;28;20052;-78
2024/01/14 01:56:57;;;;;;;8.73;1.30;;;;;;;;;;5029280;28;20393;-78
2024/01/14 01:59:24;;;;;;;11.60;2.28;;;;;;;;;;5028812;28;20818;-77
2024/01/14 02:01:50;;;;;;;9.00;1.95;;;;;;;;;;5027861;28;20057;-77
2024/01/14 02:04:16;;;;;;;9.90;1.42;;;;;;;;;;5011321;28;20424;-77
2024/01/14 02:06:43;;;;;;;6.22;1.52;;;;;;;;;;5010061;28;20049;-78
2024/01/14 02:09:09;;;;;;;5.78;1.70;;;;;;;;;;5026891;28;20046;-78
2024/01/14 02:11:36;;;;;;;5.82;1.30;;;;;;;;;;5027656;28;20522;-77
2024/01/14 02:14:05;;;;;;;9.40;1.35;;;;;;;;;;5009712;28;20045;-77
2024/01/14 02:16:31;;;;;;;17.73;2.33;;;;;;;;;;5027773;28;20451;-77
2024/01/14 02:18:57;;;;;;;6.47;1.63;;;;;;;;;;5027748;28;20041;-78
2024/01/14 02:21:26;;;;;;;11.35;1.90;;;;;;;;;;5010086;28;20053;-77
2024/01/14 02:23:59;;;;;;;8.65;1.80;;;;;;;;;;5027575;28;20045;-77
2024/01/14 02:26:25;;;;;;;13.23;2.13;;;;;;;;;;5010253;28;20056;-77
2024/01/14 02:28:52;;;;;;;7.82;1.73;;;;;;;;;;5027458;28;20057;-78
2024/01/14 02:31:20;;;;;;;7.07;1.85;;;;;;;;;;5010141;28;20115;-77
2024/01/14 02:33:46;;;;;;;7.28;1.60;;;;;;;;;;5000346;28;20698;-77
2024/01/14 02:36:12;;;;;;;7.78;1.40;;;;;;;;;;5027655;28;20475;-77
2024/01/14 02:38:40;;;;;;;9.02;1.50;;;;;;;;;;5027431;28;20164;-77
2024/01/14 02:41:06;;;;;;;7.05;1.63;;;;;;;;;;5027960;28;20049;-77
2024/01/14 02:43:32;;;;;;;8.70;1.50;;;;;;;;;;5027216;28;20124;-77
2024/01/14 02:45:58;;;;;;;12.88;2.30;;;;;;;;;;5009443;28;20124;-78
2024/01/14 02:48:24;;;;;;;11.80;2.38;;;;;;;;;;5027524;28;20492;-78
2024/01/14 02:50:50;;;;;;;5.80;1.40;;;;;;;;;;5026273;28;20136;-77
2024/01/14 02:53:16;;;;;;;8.05;1.88;;;;;;;;;;5026723;28;20049;-77
2024/01/14 02:55:42;;;;;;;13.77;2.10;;;;;;;;;;5027621;28;20053;-77
2024/01/14 02:58:08;;;;;;;9.75;1.85;;;;;;;;;;5009720;28;20045;-77
2024/01/14 03:00:35;;;;;;;9.90;2.15;;;;;;;;;;5026240;28;20045;-77
2024/01/14 03:03:01;;;;;;;9.55;2.03;;;;;;;;;;5027194;28;20068;-77
2024/01/14 03:05:27;;;;;;;9.82;1.85;;;;;;;;;;5027963;28;20053;-77
2024/01/14 03:07:53;;;;;;;8.57;1.77;;;;;;;;;;5026329;28;20045;-78
2024/01/14 03:10:19;;;;;;;9.80;1.67;;;;;;;;;;5027905;28;20107;-77
2024/01/14 03:12:45;;;;;;;9.35;1.77;;;;;;;;;;5026815;28;20103;-78
2024/01/14 03:15:11;;;;;;;8.20;1.67;;;;;;;;;;5027665;28;20057;-78
2024/01/14 03:17:37;;;;;;;8.38;1.67;;;;;;;;;;5026899;28;20121;-77
2024/01/14 03:20:03;;;;;;;8.95;1.70;;;;;;;;;;5027443;28;20053;-77
2024/01/14 03:22:29;;;;;;;6.85;1.80;;;;;;;;;;5026669;28;20041;-77
2024/01/14 03:24:55;;;;;;;12.65;1.90;;;;;;;;;;5026947;28;20052;-77
2024/01/14 03:27:21;;;;;;;11.57;1.80;;;;;;;;;;5026853;28;20494;-77
2024/01/14 03:29:47;;;;;;;12.95;2.33;;;;;;;;;;5026977;28;20037;-77
2024/01/14 03:32:13;;;;;;;7.82;1.73;;;;;;;;;;5026515;28;20064;-77
2024/01/14 03:34:39;;;;;;;9.05;2.03;;;;;;;;;;5026883;28;20130;-77
2024/01/14 03:37:05;;;;;;;8.85;1.98;;;;;;;;;;5025433;28;20045;-77
2024/01/14 03:39:31;;;;;;;14.43;2.50;;;;;;;;;;5008593;28;20537;-77
2024/01/14 03:41:57;;;;;;;11.35;1.58;;;;;;;;;;5026811;28;20042;-77
2024/01/14 03:44:23;;;;;;;15.63;2.15;;;;;;;;;;5026113;28;20046;-78
2024/01/14 03:46:49;;;;;;;12.52;2.28;;;;;;;;;;5009100;28;20848;-77
2024/01/14 03:49:14;;;;;;;8.63;1.50;;;;;;;;;;5022602;28;20117;-77
2024/01/14 03:51:41;;;;;;;10.02;1.77;;;;;;;;;;5008076;28;20123;-77
2024/01/14 03:54:07;;;;;;;7.75;1.85;;;;;;;;;;5021783;28;20061;-77
2024/01/14 03:56:33;;;;;;;7.60;1.85;;;;;;;;;;5008652;28;20087;-77
2024/01/14 03:58:59;;;;;;;9.77;2.42;;;;;;;;;;5024947;28;20045;-78
2024/01/14 04:01:25;;;;;;;15.48;1.85;;;;;;;;;;5027588;28;20774;-78
2024/01/14 04:03:51;;;;;;;6.30;2.00;;;;;;;;;;5008651;28;20129;-77
2024/01/14 04:06:22;;;;;;;8.68;2.00;;;;;;;;;;5025695;28;20052;-77
2024/01/14 04:08:48;;;;;;;12.32;1.88;;;;;;;;;;5026784;28;20297;-77
2024/01/14 04:11:14;;;;;;;8.50;1.88;;;;;;;;;;5031151;28;20471;-77
2024/01/14 04:13:40;;;;;;;12.00;1.80;;;;;;;;;;5011801;28;20522;-78
2024/01/14 04:16:09;;;;;;;7.93;2.05;;;;;;;;;;5013462;28;20049;-77
2024/01/14 04:18:36;;;;;;;6.47;1.70;;;;;;;;;;5012307;28;20049;-77
2024/01/14 04:21:02;;;;;;;11.23;2.03;;;;;;;;;;5030250;28;20116;-78
2024/01/14 04:23:28;;;;;;;12.13;2.40;;;;;;;;;;5011995;28;20470;-78
2024/01/14 04:25:55;;;;;;;9.55;1.70;;;;;;;;;;5030488;28;20117;-77
2024/01/14 04:28:21;;;;;;;8.30;1.50;;;;;;;;;;5029536;28;20174;-77
2024/01/14 04:30:47;;;;;;;12.18;1.90;;;;;;;;;;5028318;28;20049;-78
2024/01/14 04:33:13;;;;;;;12.82;1.83;;;;;;;;;;5027360;28;20049;-78
2024/01/14 04:35:39;;;;;;;11.38;1.80;;;;;;;;;;5011762;28;20064;-77
2024/01/14 04:38:05;;;;;;;14.48;1.92;;;;;;;;;;5028971;28;20052;-78
2024/01/14 04:40:31;;;;;;;13.65;1.95;;;;;;;;;;5028781;28;20509;-77
2024/01/14 04:42:57;;;;;;;7.65;1.80;;;;;;;;;;5024251;28;20091;-77
2024/01/14 04:45:23;;;;;;;9.95;1.63;;;;;;;;;;5029646;28;20049;-77
2024/01/14 04:47:49;;;;;;;9.85;1.75;;;;;;;;;;5028233;28;20076;-78
2024/01/14 04:50:15;;;;;;;8.05;1.40;;;;;;;;;;5029463;28;20115;-77
2024/01/14 04:52:41;;;;;;;10.02;1.98;;;;;;;;;;5030534;28;20102;-78
2024/01/14 04:55:07;;;;;;;7.75;1.60;;;;;;;;;;5029593;28;20049;-77
2024/01/14 04:57:33;;;;;;;7.72;1.42;;;;;;;;;;5011383;28;20043;-78
2024/01/14 04:59:59;;;;;;;7.85;1.42;;;;;;;;;;5013689;28;20087;-78
2024/01/14 05:02:25;;;;;;;10.18;2.00;;;;;;;;;;5026472;28;20077;-78
2024/01/14 05:04:51;;;;;;;8.02;1.40;;;;;;;;;;5028135;28;20056;-79
2024/01/14 05:07:17;;;;;;;7.88;1.88;;;;;;;;;;5028827;28;20045;-78
2024/01/14 05:09:43;;;;;;;8.27;1.38;;;;;;;;;;5029616;28;20117;-78
2024/01/14 05:12:09;;;;;;;10.00;2.00;;;;;;;;;;5011830;28;20049;-78
2024/01/14 05:14:35;;;;;;;9.57;1.80;;;;;;;;;;5011086;28;20060;-78
2024/01/14 05:17:01;;;;;;;7.18;1.38;;;;;;;;;;5011159;28;20047;-78
2024/01/14 05:19:27;;;;;;;8.00;1.40;;;;;;;;;;5028383;28;20068;-78
2024/01/14 05:21:53;;;;;;;6.75;1.90;;;;;;;;;;4995156;28;20148;-78
2024/01/14 05:24:19;;;;;;;7.30;1.40;;;;;;;;;;5011465;28;20550;-77
2024/01/14 05:26:45;;;;;;;7.05;1.42;;;;;;;;;;5010513;28;20054;-78
2024/01/14 05:29:11;;;;;;;5.95;1.55;;;;;;;;;;5011911;28;20458;-78
2024/01/14 05:31:37;;;;;;;7.70;1.48;;;;;;;;;;5028760;28;20518;-78
2024/01/14 05:34:04;;;;;;;10.10;1.65;;;;;;;;;;5008774;28;20484;-77
2024/01/14 05:36:30;;;;;;;9.88;2.65;;;;;;;;;;5026417;28;20458;-78
2024/01/14 05:38:56;;;;;;;5.43;1.50;;;;;;;;;;5011570;28;20050;-78
2024/01/14 05:41:22;;;;;;;3.45;1.30;;;;;;;;;;5029015;28;20184;-78
2024/01/14 05:43:48;;;;;;;10.10;1.80;;;;;;;;;;5028294;28;20561;-78
2024/01/14 05:46:14;;;;;;;7.03;1.70;;;;;;;;;;5026123;28;20037;-78
2024/01/14 05:48:40;;;;;;;12.20;1.98;;;;;;;;;;4997758;28;20056;-77
2024/01/14 05:51:06;;;;;;;5.22;1.48;;;;;;;;;;5028267;28;20476;-78
2024/01/14 05:53:32;;;;;;;5.93;1.38;;;;;;;;;;5011173;28;20049;-78
2024/01/14 05:55:58;;;;;;;11.52;1.63;;;;;;;;;;5010764;28;20184;-78
2024/01/14 05:58:24;;;;;;;7.97;1.70;;;;;;;;;;5027944;28;20173;-78
2024/01/14 06:00:50;;;;;;;4.93;1.40;;;;;;;;;;5027600;28;20380;-78
2024/01/14 06:03:16;;;;;;;9.80;1.60;;;;;;;;;;5029203;28;20415;-77
2024/01/14 06:05:42;;;;;;;8.07;1.60;;;;;;;;;;5026371;28;20117;-78
2024/01/14 06:08:08;;;;;;;6.30;1.70;;;;;;;;;;5026768;28;20111;-78
2024/01/14 06:10:34;;;;;;;9.63;1.80;;;;;;;;;;5027714;28;20503;-78
2024/01/14 06:13:00;;;;;;;5.40;1.80;;;;;;;;;;5011611;28;20107;-78
2024/01/14 06:15:26;;;;;;;9.02;1.40;;;;;;;;;;5028290;28;20884;-78
2024/01/14 06:17:52;;;;;;;5.65;1.60;;;;;;;;;;5009689;28;20056;-78
2024/01/14 06:20:18;;;;;;;8.77;1.70;;;;;;;;;;5028793;28;20037;-78
2024/01/14 06:22:44;;;;;;;8.40;1.60;;;;;;;;;;5027634;28;20052;-78
2024/01/14 06:25:10;;;;;;;6.85;1.48;;;;;;;;;;5009264;28;20053;-78
2024/01/14 06:27:36;;;;;;;10.70;1.40;;;;;;;;;;5008866;28;20049;-78
2024/01/14 06:30:03;;;;;;;4.28;1.27;;;;;;;;;;5026428;28;20124;-77
2024/01/14 06:32:29;;;;;;;7.28;1.73;;;;;;;;;;5009583;28;20053;-77
2024/01/14 06:34:55;;;;;;;8.80;2.17;;;;;;;;;;4993145;28;20041;-78
2024/01/14 06:37:21;;;;;;;11.45;1.98;;;;;;;;;;5027620;28;20045;-78
2024/01/14 06:39:47;;;;;;;5.55;1.70;;;;;;;;;;5027002;28;20041;-78
2024/01/14 06:42:13;;;;;;;7.40;1.83;;;;;;;;;;5027405;28;20045;-78
2024/01/14 06:44:39;;;;;;;7.00;1.30;;;;;;;;;;5020859;28;20038;-78
2024/01/14 06:47:05;;;;;;;9.98;1.85;;;;;;;;;;5026204;28;20056;-78
2024/01/14 06:49:31;;;;;;;7.68;1.52;;;;;;;;;;5027598;28;20042;-77
2024/01/14 06:51:57;;;;;;;8.73;1.92;;;;;;;;;;5009436;28;20056;-78
2024/01/14 06:54:23;;;;;;;5.70;1.55;;;;;;;;;;5025961;28;20132;-76
2024/01/14 06:56:49;;;;;;;7.65;1.73;;;;;;;;;;5025385;28;20052;-76
2024/01/14 06:59:19;;;;;;;37.85;3.67;;;;;;;;;;5007721;28;20056;-77
2024/01/14 07:01:48;;;;;;;9.98;1.83;;;;;;;;;;5026330;28;20061;-77
2024/01/14 07:04:15;;;;;;;13.90;2.13;;;;;;;;;;5023858;28;20071;-78
2024/01/14 07:06:41;;;;;;;7.35;2.45;;;;;;;;;;4992041;28;20037;-78
2024/01/14 07:09:12;;;;;;;11.07;2.03;;;;;;;;;;5011003;28;20049;-78
2024/01/14 07:11:38;;;;;;;6.32;1.70;;;;;;;;;;5022458;28;20120;-77
2024/01/14 07:14:04;;;;;;;7.57;1.67;;;;;;;;;;5018794;28;20121;-78
2024/01/14 07:16:30;;;;;;;11.13;1.73;;;;;;;;;;5013190;28;20045;-79
2024/01/14 07:18:56;;;;;;;10.65;1.63;;;;;;;;;;5025223;28;20060;-79
2024/01/14 07:21:23;;;;;;;8.35;1.60;;;;;;;;;;5007839;28;20091;-77
2024/01/14 07:23:49;;;;;;;4.32;1.20;;;;;;;;;;5026539;28;20049;-77
2024/01/14 07:26:16;;;;;;;7.85;1.60;;;;;;;;;;5026563;28;20784;-78
2024/01/14 07:28:42;;;;;;;9.10;1.92;;;;;;;;;;5019418;28;20496;-77
2024/01/14 07:31:09;;;;;;;9.05;1.30;;;;;;;;;;5003133;28;20073;-77
2024/01/14 07:33:35;;;;;;;4.88;1.50;;;;;;;;;;5028001;28;20053;-78
2024/01/14 07:36:01;;;;;;;4.75;1.58;;;;;;;;;;5008530;28;20129;-78
2024/01/14 07:38:27;;;;;;;7.90;1.50;;;;;;;;;;5026696;28;20539;-79
2024/01/14 07:40:53;;;;;;;5.65;1.73;;;;;;;;;;5027505;28;20055;-78
2024/01/14 07:43:19;;;;;;;8.57;1.50;;;;;;;;;;5028099;28;20498;-80
2024/01/14 07:45:45;;;;;;;8.05;2.15;;;;;;;;;;5029957;28;20128;-79
2024/01/14 07:48:11;;;;;;;7.45;1.63;;;;;;;;;;5031060;28;20049;-79
2024/01/14 07:50:37;;;;;;;6.55;1.63;;;;;;;;;;5031441;28;20067;-79
2024/01/14 07:53:03;;;;;;;8.57;1.63;;;;;;;;;;5031025;28;20048;-81
2024/01/14 07:55:30;;;;;;;9.82;1.70;;;;;;;;;;5013567;28;20073;-79
2024/01/14 07:57:57;;;;;;;7.97;1.75;;;;;;;;;;5013279;28;20065;-80
2024/01/14 08:00:23;;;;;;;6.22;2.13;;;;;;;;;;5027734;28;20048;-78
2024/01/14 08:02:49;;;;;;;7.28;1.60;;;;;;;;;;5031319;28;20057;-80
2024/01/14 08:05:15;;;;;;;5.97;1.45;;;;;;;;;;5013605;28;20046;-80
2024/01/14 08:07:41;;;;;;;5.07;1.45;;;;;;;;;;5013246;28;20384;-79
2024/01/14 08:10:07;;;;;;;6.85;1.38;;;;;;;;;;5012687;28;20498;-79
2024/01/14 08:12:34;;;;;;;3.85;1.65;;;;;;;;;;5031100;28;20080;-79
2024/01/14 08:15:00;;;;;;;5.63;1.90;;;;;;;;;;5013203;28;20507;-79
2024/01/14 08:17:26;;;;;;;3.85;1.70;;;;;;;;;;5012779;28;20152;-80
2024/01/14 08:19:52;;;;;;;11.82;6.38;;;;;;;;;;5030674;28;20050;-80
2024/01/14 08:22:18;;;;;;;8.20;1.95;;;;;;;;;;5030503;28;20049;-80
2024/01/14 08:24:45;;;;;;;7.35;1.60;;;;;;;;;;5030591;28;20503;-79
2024/01/14 08:27:11;;;;;;;7.60;1.30;;;;;;;;;;5006902;28;20049;-79
2024/01/14 08:29:37;;;;;;;7.63;1.67;;;;;;;;;;5014438;28;20037;-79
2024/01/14 08:32:03;;;;;;;7.70;1.65;;;;;;;;;;5012682;28;20042;-79
2024/01/14 08:34:32;;;;;;;5.53;1.60;;;;;;;;;;5031093;28;20103;-79
2024/01/14 08:36:58;;;;;;;7.38;2.63;;;;;;;;;;5011832;28;20045;-79
2024/01/14 08:39:24;;;;;;;8.82;1.65;;;;;;;;;;5030100;28;20092;-79
2024/01/14 08:41:50;;;;;;;7.20;1.60;;;;;;;;;;5030351;28;20064;-79
2024/01/14 08:44:16;;;;;;;6.82;1.40;;;;;;;;;;5030644;28;20049;-79
2024/01/14 08:46:44;;;;;;;4.03;1.55;;;;;;;;;;5012981;28;20053;-79
2024/01/14 08:49:09;;;;;;;5.25;1.58;;;;;;;;;;5030435;28;20164;-79
2024/01/14 08:51:35;;;;;;;3.35;1.10;;;;;;;;;;5013091;28;20062;-80
2024/01/14 08:54:01;;;;;;;5.82;1.70;;;;;;;;;;5011343;28;20756;-79
2024/01/14 08:56:28;;;;;;;6.93;1.75;;;;;;;;;;5029752;28;20103;-79
2024/01/14 08:58:56;;;;;;;6.85;1.17;;;;;;;;;;5030355;28;20053;-79
2024/01/14 09:01:22;;;;;;;4.20;1.38;;;;;;;;;;5030137;28;20096;-79
2024/01/14 09:03:48;;;;;;;5.45;1.50;;;;;;;;;;5012410;28;20061;-79
2024/01/14 09:06:14;;;;;;;4.57;1.30;;;;;;;;;;5029929;28;20057;-79
2024/01/14 09:08:40;;;;;;;6.22;1.00;;;;;;;;;;4995558;28;20046;-79
2024/01/14 09:11:07;;;;;;;4.88;1.10;;;;;;;;;;5029639;28;20046;-79
2024/01/14 09:13:33;;;;;;;2.65;1.05;;;;;;;;;;5011770;28;20102;-79
2024/01/14 09:15:59;;;;;;;5.03;1.40;;;;;;;;;;5011458;28;20045;-79
2024/01/14 09:18:26;;;;;;;3.42;1.40;;;;;;;;;;5030348;28;20140;-79
2024/01/14 09:20:52;;;;;;;6.53;1.58;;;;;;;;;;5012163;28;20049;-80
2024/01/14 09:23:18;;;;;;;4.57;1.15;;;;;;;;;;5029228;28;20571;-79
2024/01/14 09:25:44;;;;;;;5.47;1.50;;;;;;;;;;5011995;28;20054;-79
2024/01/14 09:28:10;;;;;;;6.88;1.60;;;;;;;;;;5011348;28;20045;-79
2024/01/14 09:30:36;;;;;;;6.80;1.35;;;;;;;;;;5029255;28;20045;-79
2024/01/14 09:33:02;;;;;;;7.35;1.50;;;;;;;;;;5029836;28;20033;-80
2024/01/14 09:35:28;;;;;;;3.42;1.27;;;;;;;;;;5011368;28;20096;-79
2024/01/14 09:37:54;;;;;;;6.80;1.60;;;;;;;;;;5029010;28;20535;-79
2024/01/14 09:40:21;;;;;;;5.47;1.50;;;;;;;;;;5011884;28;20503;-79
2024/01/14 09:42:49;;;;;;;4.18;1.30;;;;;;;;;;5029707;28;20042;-80
2024/01/14 09:45:15;;;;;;;2.00;1.33;;;;;;;;;;4994904;28;20045;-79
2024/01/14 09:47:42;;;;;;;1.98;1.15;;;;;;;;;;5029586;28;20057;-79
2024/01/14 09:50:10;;;;;;;6.38;1.67;;;;;;;;;;5029376;28;20044;-79
2024/01/14 09:52:37;;;;;;;1.10;1.00;;;;;;;;;;5028388;28;20087;-80
2024/01/14 09:55:05;;;;;;;3.90;1.27;;;;;;;;;;5029279;28;20420;-78
2024/01/14 09:57:33;;;;;;;3.25;1.00;;;;;;;;;;5029441;28;20124;-79
2024/01/14 10:00:03;;;;;;;4.32;1.23;;;;;;;;;;5029260;28;20474;-79
2024/01/14 10:02:29;;;;;;;2.60;1.15;;;;;;;;;;4994564;28;20115;-79
2024/01/14 10:04:55;;;;;;;2.42;1.30;;;;;;;;;;5028891;28;20052;-79
2024/01/14 10:07:22;;;;;;;1.77;0.80;;;;;;;;;;5027132;28;20041;-79
2024/01/14 10:09:48;;;;;;;2.90;1.17;;;;;;;;;;5028241;28;20045;-78
2024/01/14 10:12:15;;;;;;;1.23;0.80;;;;;;;;;;5027678;28;20106;-80
2024/01/14 10:14:41;;;;;;;1.70;0.77;;;;;;;;;;5027109;28;20501;-80
2024/01/14 10:17:07;;;;;;;3.70;1.10;;;;;;;;;;5027341;28;20056;-79
2024/01/14 10:19:33;;;;;;;1.38;1.27;;;;;;;;;;5027753;28;20095;-80
2024/01/14 10:22:00;;;;;;;2.70;1.58;;;;;;;;;;5024803;28;20049;-80
2024/01/14 10:24:26;;;;;;;3.22;1.15;;;;;;;;;;5026294;28;20792;-80
2024/01/14 10:26:56;;;;;;;6.60;1.50;;;;;;;;;;5026586;28;20045;-79
2024/01/14 10:29:22;;;;;;;1.60;1.08;;;;;;;;;;5028777;28;20046;-79
2024/01/14 10:31:48;;;;;;;4.20;1.00;;;;;;;;;;5009730;28;20053;-79
2024/01/14 10:34:18;;;;;;;1.88;1.10;;;;;;;;;;4994189;28;20762;-79
2024/01/14 10:36:45;;;;;;;2.83;1.15;;;;;;;;;;5026793;28;20131;-79
2024/01/14 10:39:12;;;;;;;2.15;1.25;;;;;;;;;;5027915;28;20815;-79
2024/01/14 10:41:38;;;;;;;5.88;1.63;;;;;;;;;;5026969;28;20096;-79
2024/01/14 10:44:04;;;;;;;6.40;2.40;;;;;;;;;;5027944;28;20068;-79
2024/01/14 10:46:30;;;;;;;5.15;2.70;;;;;;;;;;5027960;28;20045;-79
2024/01/14 10:49:06;;;;;;;7.13;3.55;;;;;;;;;;5010757;28;20045;-80
2024/01/14 10:51:38;;;;;;;8.05;3.83;;;;;;;;;;5027989;28;20084;-80
2024/01/14 10:54:09;;;;;;;10.02;4.45;;;;;;;;;;5027717;28;20447;-80
2024/01/14 10:56:40;;;;;;;12.40;5.20;;;;;;;;;;4993786;28;20088;-80
2024/01/14 10:59:08;;;;;;;10.10;5.25;;;;;;;;;;5027856;28;20332;-80
2024/01/14 11:01:37;;;;;;;15.80;6.55;;;;;;;;;;5027755;28;20041;-80
2024/01/14 11:04:03;;;;;;;14.60;6.55;;;;;;;;;;4993539;28;20049;-80
2024/01/14 11:06:30;;;;;;;10.95;5.43;;;;;;;;;;5009521;28;20057;-80
2024/01/14 11:08:56;;;;;;;11.48;6.28;;;;;;;;;;5026200;28;20048;-80
2024/01/14 11:11:26;;;;;;;11.77;6.05;;;;;;;;;;5027571;28;20045;-80
2024/01/14 11:13:56;;;;;;;13.25;6.75;;;;;;;;;;5025935;28;20053;-80
2024/01/14 11:16:24;;;;;;;17.15;6.82;;;;;;;;;;5027624;28;20124;-80
2024/01/14 11:18:53;;;;;;;13.32;6.50;;;;;;;;;;5010309;28;20053;-80
2024/01/14 11:21:40;;;;;;;14.40;7.78;;;;;;;;;;5028349;28;20044;-80
2024/01/14 11:24:06;;;;;;;13.70;7.32;;;;;;;;;;4989086;28;20053;-80
2024/01/14 11:26:32;;;;;;;12.55;6.70;;;;;;;;;;5027111;28;20033;-81
2024/01/14 11:29:00;;;;;;;12.35;6.75;;;;;;;;;;5027761;28;20045;-80
2024/01/14 11:31:45;;;;;;;10.32;5.50;;;;;;;;;;5027806;28;20084;-81
2024/01/14 11:34:31;;;;;;;10.38;5.05;;;;;;;;;;5027445;28;20037;-82
2024/01/14 11:36:57;;;;;;;13.68;4.72;;;;;;;;;;5036090;28;20053;-80
2024/01/14 11:39:23;;;;;;;7.25;4.30;;;;;;;;;;5026126;28;20045;-81
2024/01/14 11:41:49;;;;;;;9.50;4.57;;;;;;;;;;5035632;28;20045;-82
2024/01/14 11:44:28;;;;;;;6.85;4.03;;;;;;;;;;5009536;28;20099;-79
2024/01/14 11:46:54;;;;;;;5.28;3.67;;;;;;;;;;5027484;28;20068;-80
2024/01/14 11:49:23;;;;;;;7.43;4.35;;;;;;;;;;5008770;28;20384;-79
2024/01/14 11:51:57;;;;;;;10.18;5.38;;;;;;;;;;5020123;28;20503;-79
2024/01/14 11:54:24;;;;;;;10.32;5.25;;;;;;;;;;5009985;28;20669;-79
2024/01/14 11:56:50;;;;;;;9.48;4.75;;;;;;;;;;5027408;28;20048;-79
2024/01/14 11:59:17;;;;;;;8.52;5.00;;;;;;;;;;5026492;28;20474;-79
2024/01/14 12:01:43;;;;;;;10.20;4.65;;;;;;;;;;5027727;28;20042;-79
2024/01/14 12:04:09;;;;;;;6.50;3.83;;;;;;;;;;5009793;28;20565;-79
2024/01/14 12:06:39;;;;;;;9.88;4.13;;;;;;;;;;5027595;28;20038;-79
2024/01/14 12:09:06;;;;;;;10.38;4.32;;;;;;;;;;5026169;28;20057;-79
2024/01/14 12:11:32;;;;;;;6.10;3.47;;;;;;;;;;5027367;28;20046;-79
2024/01/14 12:13:58;;;;;;;7.28;4.30;;;;;;;;;;5025955;28;20057;-79
2024/01/14 12:16:24;;;;;;;8.65;4.88;;;;;;;;;;5027878;28;20053;-80
2024/01/14 12:18:50;;;;;;;7.47;4.22;;;;;;;;;;5028973;28;20046;-80
2024/01/14 12:21:20;;;;;;;10.88;5.38;;;;;;;;;;5026854;28;20042;-80
2024/01/14 12:23:46;;;;;;;9.48;5.60;;;;;;;;;;5009197;28;20435;-80
2024/01/14 12:26:13;;;;;;;9.35;5.35;;;4.50;99.90;;;;;;5027984;28;20052;-80
2024/01/14 12:28:39;;;;;;;9.98;6.40;;;4.30;99.90;;;;;;5006629;28;20048;-82
2024/01/14 12:31:05;;;;;;;11.32;6.70;;;4.50;99.90;;;;;;5012488;28;20625;-80
2024/01/14 12:33:31;;;;;;;14.57;7.00;;;4.50;99.90;;;;;;5030262;28;20128;-81
2024/01/14 12:35:57;;;;;;;12.00;7.10;;;4.50;99.90;;;;;;5030325;28;20111;-80
2024/01/14 12:38:23;;;;;;;12.95;7.20;;;4.50;99.90;;;;;;5030563;28;20046;-82
2024/01/14 12:40:48;;;;;;;12.82;7.38;;;4.50;99.90;;;;;;5030985;28;20113;-80
2024/01/14 12:43:15;;;;;;;16.40;8.10;;;4.50;99.90;;;;;;5012489;28;20521;-81
2024/01/14 12:45:52;;;;;;;13.05;8.52;;;4.40;99.90;;;;;;5030498;28;20534;-81
2024/01/14 12:48:23;;;;;;;17.08;8.75;;;4.50;99.90;;;;;;5007268;28;20747;-81
2024/01/14 12:50:56;;;;;;;13.43;8.20;;;4.60;99.90;;;;;;5011903;28;20144;-81
2024/01/14 12:53:22;;;;;;;14.88;7.70;;;4.60;99.90;;;;;;5028475;28;20046;-81
2024/01/14 12:55:48;;;;;;;16.58;8.45;;;4.60;99.90;;;;;;5012493;28;20566;-80
2024/01/14 12:58:14;;;;;;;15.57;8.52;;;4.60;99.90;;;;;;5030565;28;20045;-81
2024/01/14 13:00:41;;;;;;;17.20;8.90;;;4.90;99.90;;;;;;5012055;28;20037;-82
2024/01/14 13:03:08;;;;;;;13.48;8.93;;;4.60;99.90;;;;;;5028356;28;20064;-80
2024/01/14 13:05:34;;;;;;;15.00;8.85;;;4.60;99.90;;;;;;5029807;28;20049;-81
2024/01/14 13:08:00;;;;;;;13.75;8.77;;;4.60;99.90;;;;;;5007754;28;20053;-82
2024/01/14 13:10:26;;;;;;;17.83;8.75;;;4.60;99.90;;;;;;5028678;28;20056;-81
2024/01/14 13:12:51;;;;;;;15.15;8.55;;;4.60;99.90;;;;;;5012071;28;20037;-81
2024/01/14 13:15:18;;;;;;;16.20;8.52;;;4.60;99.90;;;;;;5029876;28;20092;-81
2024/01/14 13:17:44;;;;;;;17.15;8.05;;;4.60;99.90;;;;;;5011855;28;20046;-81
2024/01/14 13:20:10;;;;;;;16.58;9.05;;;4.50;99.90;;;;;;5028031;28;20049;-81
2024/01/14 13:22:37;;;;;;;14.45;8.70;;;4.50;99.90;;;;;;5028935;28;20514;-81
2024/01/14 13:25:03;;;;;;;14.57;7.65;;;4.50;99.90;;;;;;5028597;28;20044;-81
2024/01/14 13:27:30;;;;;;;17.45;9.02;;;4.50;99.90;;;;;;5029572;28;20041;-81
2024/01/14 13:29:55;;;;;;;17.33;8.38;;;4.80;99.90;;;;;;5030138;28;20041;-81
2024/01/14 13:32:22;;;;;;;17.13;8.63;;;4.40;99.90;;;;;;5029473;28;20041;-81
2024/01/14 13:34:49;;;;;;;17.52;8.60;;;4.40;99.90;;;;;;5029608;28;20133;-81
2024/01/14 13:37:15;;;;;;;16.58;8.68;;;4.40;99.90;;;;;;5028957;28;20061;-81
2024/01/14 13:39:42;;;;;;;18.63;8.82;;;4.40;99.90;;;;;;5010825;28;20076;-81
2024/01/14 13:42:11;;;;;;;13.68;7.95;;;4.40;99.90;;;;;;5010891;28;20107;-81
2024/01/14 13:44:38;;;;;;;13.88;8.57;;;4.40;99.90;;;;;;5029657;28;20144;-80
2024/01/14 13:47:04;;;;;;;16.13;8.07;;;4.30;99.90;;;;;;5010564;28;20474;-80
2024/01/14 13:49:30;;;;;;;13.93;7.63;;;4.30;99.90;;;;;;5029491;28;20041;-80
2024/01/14 13:51:56;;;;;;;11.15;7.13;;;4.30;99.90;;;;;;5028361;28;20038;-80
2024/01/14 13:54:22;;;;;;;14.38;6.82;;;4.30;99.90;;;;;;5028801;28;20499;-81
2024/01/14 13:56:50;;;;;;;10.68;6.05;;;4.30;99.90;;;;;;5026794;28;20057;-80
2024/01/14 13:59:16;;;;;;;15.57;7.57;;;4.30;99.90;;;;;;5018593;28;20081;-80
2024/01/14 14:01:42;;;;;;;12.35;6.07;;;4.30;99.90;;;;;;5029292;28;20080;-80
2024/01/14 14:04:08;;;;;;;10.65;7.00;;;4.30;99.90;;;;;;5028478;28;20126;-80
2024/01/14 14:06:35;;;;;;;12.20;5.70;;;4.30;99.90;;;;;;5010929;28;20456;-79
2024/01/14 14:09:05;;;;;;;8.35;5.07;;;4.40;99.90;;;;;;5028111;28;20042;-80
2024/01/14 14:11:31;;;;;;;8.77;5.35;;;4.80;99.90;;;;;;5011317;28;20125;-80
2024/01/14 14:13:58;;;;;;;7.07;2.90;;;4.40;99.90;;;;;;5026308;28;20128;-80
2024/01/14 14:16:24;;;;;;;7.78;4.15;;;4.40;99.90;;;;;;5028290;28;20503;-80
2024/01/14 14:18:49;;;;;;;8.55;3.25;;;4.30;99.90;;;;;;5028483;28;20056;-79
2024/01/14 14:21:15;;;;;;;3.88;2.55;;;4.30;99.90;;;;;;5011134;28;20152;-80